Dudleyville, Illinois
Current Conditions -  °F | °C
As of 12:55 AM on Saturday 25 Oct 2014 (Local Time) from K3LF Reporting Station
Overcast Overcast  
Wind Chill: 57°   Ceiling: 4700
Heat Index: 57°   Visibility: 10mi
Dew Point: 49°   Wind: 7mph
Humidity: 76%   Direction: 190°S
Pressure: 29.98"   Gusts: NA
Location:  38.895°N, 89.397°W
Report Text: K3LF 250555Z AUTO 19006KT 10SM OVC047 14/10 A2998 RMK AO2 T01380097 10151 20120 402030082
Loading
Personal Weather Stations






























Interactive Weather Map
Tropical Storm Tracking
New forecast layout! Learn more

10-Day Weather Forecast

Advertisements
Track Severe Weather on mobile